Phoenix Park, Pennsylvania
Current Conditions -  °F | °C
As of 12:58 PM on Sunday 21 Dec 2014 (Local Time) from KMUI Reporting Station
Overcast Overcast  
Wind Chill: 26°   Ceiling: 2600
Heat Index: 33°   Visibility: 10mi
Dew Point: 22°   Wind: 7mph
Humidity: 64%   Direction: 310°NW
Pressure: 30.31"   Gusts: NA
Location:  40.6882°N, 76.264°W
Report Text: KMUI 211758Z AUTO 31006KT 10SM OVC026 00/M06 A3031 RMK AO2 SLP272 T00041056 10005 21016 58012
Loading
Personal Weather Stations






























Interactive Weather Map New forecast layout! Learn more

10-Day Weather Forecast

Advertisements
Track Severe Weather on mobile